Ashland, WV

7:40 PM EDT on May 28, 2015 (GMT -0400)
185 Beeson rd | | Change Station
CLOSE
Current Station
Personal Weather Station
Location: Lashmeet, WV
Elevation: 2513 ft
Nearby Weather Stations

Elev 2513 ft 37.42 °N, 81.20 °W | Updated 3 seconds ago

Partly Cloudy
Partly Cloudy
73.6 °F
Feels Like 75 °F
N
0.0
Wind Variable Wind from West
Gusts 0.0 mph

Today
High -- | Low -- °F
--% Chance of Precip.
Yesterday
High -- | Low -- °F
Precip. -- in
6:08 AM 8:37 PM
Waxing Gibbous, 79% visible
Pressure 30.29 in
Visibility 10.0 miles
Clouds Scattered Clouds 3400 ft
Scattered Clouds 5000 ft
Mostly Cloudy 6500 ft
Heat Index 75 °F
Dew Point 64 °F
Humidity 73%
Rainfall 0.00 in
Snow Depth Not available.
UV 0 out of 12
Pollen 7.40 out of 12
Air Quality Not available.
Flu Activity Sporadic
SPECI KBLF 282334Z AUTO VRB04KT 10SM SCT034 SCT050 BKN065 23/14 A3029 RMK AO2 T02280144

More Conditions Fewer Conditions

Pressure 30.29 in
Visibility 10.0 miles
Clouds Scattered Clouds 3400 ft
Scattered Clouds 5000 ft
Mostly Cloudy 6500 ft
Heat Index 75 °F
Dew Point 64 °F
Humidity 73%
Rainfall 0.00 in
Snow Depth Not available.
UV 0 out of 12
Pollen 7.40 out of 12
Air Quality Not available.
Flu Activity Sporadic
SPECI KBLF 282334Z AUTO VRB04KT 10SM SCT034 SCT050 BKN065 23/14 A3029 RMK AO2 T02280144

More Conditions Fewer Conditions

10-Day Weather Forecast

Almanac

Astronomy

May. 28, 2015 Rise Set
Actual Time
Civil Twilight
Nautical Twilight
Astronomical Twilight
Moon
Length of Visible Light
Length of Day
Tomorrow will be .
, % of the Moon is Illuminated

Today's Extremes

State Highs State Lows

Community

WunderPhotos

Upload Photos

1,825,094 photos uploaded!

WunderBlogs® & News

Nearby

Air Quality

  Air Quality AQ Index Pollutant
Not available.

Snow Depth

Station Depth Elevation

Earthquake Activity

City Distance Mag. Time & Date
Minimum magnitude displayed is 2.5.

Coastal Water Temperatures

Place Temperature

Stations

Nearby Weather Stations

Station Location Temp. Windchill Dew Point Humidity Wind Precip. Elev Updated Type